createdAt,value
2023-05-01T00:00:29.506Z,12.30
2023-05-01T00:01:29.504Z,14.50
2023-05-01T00:02:29.554Z,13.20
2023-05-01T00:03:29.603Z,15.40
2023-05-01T00:04:29.474Z,14.40
2023-05-01T00:05:29.446Z,14.20
2023-05-01T00:06:29.482Z,16.20
2023-05-01T00:07:29.465Z,14.90
2023-05-01T00:08:29.413Z,15.20
2023-05-01T00:09:29.389Z,12.90
2023-05-01T00:10:29.363Z,11.70
2023-05-01T00:11:29.385Z,11.80
2023-05-01T00:12:29.363Z,13.00
2023-05-01T00:13:29.343Z,15.60
2023-05-01T00:14:29.315Z,13.30
2023-05-01T00:15:29.334Z,15.00
2023-05-01T00:16:29.343Z,12.50
2023-05-01T00:17:29.328Z,11.80
2023-05-01T00:18:29.282Z,13.00
2023-05-01T00:19:29.261Z,14.60
2023-05-01T00:20:29.252Z,14.60
2023-05-01T00:21:29.238Z,13.70
2023-05-01T00:22:29.232Z,15.20
2023-05-01T00:23:29.195Z,14.50
2023-05-01T00:24:29.183Z,12.60
2023-05-01T00:25:29.211Z,11.80
2023-05-01T00:26:29.289Z,12.10
2023-05-01T00:27:29.160Z,12.70
2023-05-01T00:28:29.154Z,15.30
2023-05-01T00:29:29.139Z,14.70
2023-05-01T00:30:29.140Z,14.10
2023-05-01T00:31:29.160Z,13.20
2023-05-01T00:32:29.212Z,12.10
2023-05-01T00:33:29.085Z,12.80
2023-05-01T00:34:29.056Z,12.30
2023-05-01T00:35:29.060Z,15.10
2023-05-01T00:36:29.048Z,15.10
2023-05-01T00:37:29.029Z,13.20
2023-05-01T00:38:29.010Z,13.40
2023-05-01T00:39:29.024Z,16.50
2023-05-01T00:40:29.026Z,16.00
2023-05-01T00:41:28.977Z,14.30
2023-05-01T00:42:28.959Z,13.70
2023-05-01T00:43:28.966Z,13.70
2023-05-01T00:44:28.925Z,12.80
2023-05-01T00:45:29.036Z,14.10
2023-05-01T00:46:29.062Z,17.90
2023-05-01T00:47:28.914Z,16.20
2023-05-01T00:48:28.881Z,14.80
2023-05-01T00:49:28.888Z,14.70
2023-05-01T00:50:28.863Z,14.00
2023-05-01T00:51:28.846Z,12.40
2023-05-01T00:52:28.833Z,14.20
2023-05-01T00:53:28.828Z,14.70
2023-05-01T00:54:28.815Z,14.10
2023-05-01T00:55:28.813Z,11.90
2023-05-01T00:56:28.798Z,11.90
2023-05-01T00:57:28.779Z,14.20
2023-05-01T00:58:28.762Z,16.70
2023-05-01T00:59:28.749Z,14.70
2023-05-01T01:00:28.760Z,14.30
2023-05-01T01:01:28.970Z,13.20
2023-05-01T01:02:28.738Z,13.20
2023-05-01T01:03:28.709Z,12.30
2023-05-01T01:04:28.746Z,14.90
2023-05-01T01:05:28.701Z,15.20
2023-05-01T01:06:28.716Z,15.40
2023-05-01T01:07:28.642Z,13.90
2023-05-01T01:08:30.590Z,13.80
2023-05-01T01:09:28.624Z,10.20
2023-05-01T01:10:28.613Z,12.70
2023-05-01T01:11:28.588Z,13.60
2023-05-01T01:12:28.594Z,14.30
2023-05-01T01:13:28.619Z,15.00
2023-05-01T01:14:28.552Z,15.00
2023-05-01T01:15:28.541Z,14.50
2023-05-01T01:16:28.540Z,13.50
2023-05-01T01:17:28.576Z,12.40
2023-05-01T01:18:28.494Z,11.80
2023-05-01T01:19:28.488Z,10.60
2023-05-01T01:20:28.488Z,12.90
2023-05-01T01:21:28.494Z,12.00
2023-05-01T01:22:28.489Z,10.10
2023-05-01T01:23:28.450Z,10.60
2023-05-01T01:24:28.433Z,11.80
2023-05-01T01:25:28.439Z,10.90
2023-05-01T01:26:28.411Z,11.60
2023-05-01T01:27:28.424Z,13.20
2023-05-01T01:28:28.362Z,11.10
2023-05-01T01:29:28.366Z,9.50
2023-05-01T01:30:28.385Z,10.60
2023-05-01T01:31:28.363Z,10.50
2023-05-01T01:32:28.360Z,11.20
2023-05-01T01:33:28.314Z,10.70
2023-05-01T01:34:28.311Z,11.30
2023-05-01T01:35:28.309Z,10.50
2023-05-01T01:36:28.293Z,11.80
2023-05-01T01:37:28.252Z,12.40
2023-05-01T01:38:28.269Z,11.50
2023-05-01T01:39:28.233Z,10.50
2023-05-01T01:40:28.247Z,11.30
2023-05-01T01:41:28.197Z,12.20
2023-05-01T01:42:28.200Z,13.50
2023-05-01T01:43:28.202Z,12.80
2023-05-01T01:44:28.179Z,10.20
2023-05-01T01:45:28.166Z,10.60
2023-05-01T01:46:28.191Z,11.80
2023-05-01T01:47:28.289Z,10.40
2023-05-01T01:48:28.149Z,12.30
2023-05-01T01:49:28.101Z,12.40
2023-05-01T01:50:28.110Z,10.40
2023-05-01T01:51:28.091Z,12.50
2023-05-01T01:52:28.066Z,12.00
2023-05-01T01:53:28.067Z,10.50
2023-05-01T01:54:28.053Z,12.80
2023-05-01T01:55:28.046Z,12.50
2023-05-01T01:56:28.016Z,11.60
2023-05-01T01:57:27.997Z,10.50
2023-05-01T01:58:27.997Z,10.70
2023-05-01T01:59:27.990Z,10.90
2023-05-01T02:00:27.985Z,12.30
2023-05-01T02:01:27.999Z,11.80
2023-05-01T02:02:28.150Z,9.50
2023-05-01T02:03:28.040Z,9.80
2023-05-01T02:04:27.918Z,11.30
2023-05-01T02:05:27.910Z,9.90
2023-05-01T02:06:27.930Z,11.10
2023-05-01T02:07:27.886Z,10.80
2023-05-01T02:08:27.882Z,12.10
2023-05-01T02:09:27.842Z,11.80
2023-05-01T02:10:27.853Z,9.90
2023-05-01T02:11:27.819Z,10.20
2023-05-01T02:12:27.810Z,8.70
2023-05-01T02:13:27.808Z,11.10
2023-05-01T02:14:27.795Z,10.00
2023-05-01T02:15:27.781Z,10.30
2023-05-01T02:16:27.824Z,10.50
2023-05-01T02:17:27.767Z,10.00
2023-05-01T02:18:27.752Z,11.00
2023-05-01T02:19:27.730Z,11.20
2023-05-01T02:20:27.724Z,10.40
2023-05-01T02:21:27.697Z,10.00
2023-05-01T02:22:27.684Z,11.50
2023-05-01T02:23:27.688Z,10.80
2023-05-01T02:24:27.663Z,9.50
2023-05-01T02:25:29.560Z,10.30
2023-05-01T02:26:27.652Z,9.40
2023-05-01T02:27:27.638Z,9.80
2023-05-01T02:28:27.606Z,12.90
2023-05-01T02:29:27.604Z,12.50
2023-05-01T02:30:27.612Z,12.70
2023-05-01T02:31:27.610Z,13.10
2023-05-01T02:32:27.591Z,15.50
2023-05-01T02:33:27.545Z,16.10
2023-05-01T02:34:27.539Z,13.60
2023-05-01T02:35:27.522Z,13.20
2023-05-01T02:36:27.519Z,12.00
2023-05-01T02:37:27.522Z,12.20
2023-05-01T02:38:27.484Z,13.00
2023-05-01T02:39:27.472Z,10.50
2023-05-01T02:40:27.477Z,10.70
2023-05-01T02:41:27.438Z,11.20
2023-05-01T02:42:27.446Z,9.90
2023-05-01T02:43:27.441Z,9.20
2023-05-01T02:44:27.410Z,10.60
2023-05-01T02:45:27.430Z,10.50
2023-05-01T02:46:27.517Z,13.10
2023-05-01T02:47:27.537Z,12.10
2023-05-01T02:48:27.371Z,10.80
2023-05-01T02:49:27.338Z,10.20
2023-05-01T02:50:27.410Z,11.10
2023-05-01T02:51:27.326Z,11.50
2023-05-01T02:52:27.322Z,11.60
2023-05-01T02:53:27.315Z,10.60
2023-05-01T02:54:27.273Z,11.70
2023-05-01T02:55:27.291Z,12.30
2023-05-01T02:56:27.269Z,11.40
2023-05-01T02:57:27.237Z,12.20
2023-05-01T02:58:27.255Z,10.30
2023-05-01T02:59:27.206Z,11.00
2023-05-01T03:00:27.241Z,11.70
2023-05-01T03:01:27.206Z,11.80
2023-05-01T03:02:27.189Z,9.90
2023-05-01T03:03:27.155Z,11.40
2023-05-01T03:04:27.207Z,10.90
2023-05-01T03:05:27.144Z,9.80
2023-05-01T03:06:27.154Z,10.40
2023-05-01T03:07:27.114Z,9.50
2023-05-01T03:08:27.125Z,9.70
2023-05-01T03:09:27.088Z,11.60
2023-05-01T03:10:27.088Z,11.50
2023-05-01T03:11:27.061Z,12.20
2023-05-01T03:12:27.070Z,13.10
2023-05-01T03:13:27.043Z,12.80
2023-05-01T03:14:27.023Z,10.80
2023-05-01T03:15:27.032Z,10.20
2023-05-01T03:16:27.099Z,10.90
2023-05-01T03:17:27.027Z,9.00
2023-05-01T03:18:26.974Z,11.30
2023-05-01T03:19:26.953Z,11.90
2023-05-01T03:20:27.603Z,9.80
2023-05-01T03:21:26.946Z,11.30
2023-05-01T03:22:26.928Z,9.00
2023-05-01T03:23:26.906Z,8.40
2023-05-01T03:24:26.895Z,10.10
2023-05-01T03:25:26.882Z,9.50
2023-05-01T03:26:26.862Z,10.40
2023-05-01T03:27:26.863Z,11.00
2023-05-01T03:28:26.850Z,10.90
2023-05-01T03:29:26.817Z,10.10
2023-05-01T03:30:26.915Z,10.60
2023-05-01T03:31:26.870Z,11.00
2023-05-01T03:32:26.899Z,11.70
2023-05-01T03:33:26.790Z,8.90
2023-05-01T03:34:26.769Z,10.80
2023-05-01T03:35:26.844Z,10.00
2023-05-01T03:36:26.722Z,10.70
2023-05-01T03:37:26.720Z,11.10
2023-05-01T03:38:26.724Z,10.00
2023-05-01T03:39:26.694Z,8.40
2023-05-01T03:40:26.690Z,12.00
2023-05-01T03:41:26.656Z,9.60
2023-05-01T03:42:26.651Z,8.40
2023-05-01T03:43:26.644Z,11.30
2023-05-01T03:44:26.627Z,10.00
2023-05-01T03:45:26.626Z,10.90
2023-05-01T03:46:26.644Z,10.60
2023-05-01T03:47:26.625Z,10.80
2023-05-01T03:48:26.592Z,9.80
2023-05-01T03:49:26.557Z,10.70
2023-05-01T03:50:26.561Z,10.60
2023-05-01T03:51:26.544Z,11.20
2023-05-01T03:52:26.567Z,11.80
2023-05-01T03:53:26.509Z,12.60
2023-05-01T03:54:26.505Z,11.30
2023-05-01T03:55:26.514Z,10.10
2023-05-01T03:56:26.487Z,11.60
2023-05-01T03:57:26.459Z,10.60
2023-05-01T03:58:26.457Z,9.70
2023-05-01T03:59:26.453Z,9.10
2023-05-01T04:00:26.448Z,10.00
2023-05-01T04:01:26.432Z,8.70
2023-05-01T04:02:26.465Z,11.00
2023-05-01T04:03:26.594Z,9.90
2023-05-01T04:04:26.437Z,9.90
2023-05-01T04:05:26.359Z,11.60
2023-05-01T04:06:26.388Z,10.90
2023-05-01T04:07:26.351Z,10.30
2023-05-01T04:08:26.332Z,8.90
2023-05-01T04:09:26.329Z,9.60
2023-05-01T04:10:26.300Z,8.70
2023-05-01T04:11:26.272Z,8.90
2023-05-01T04:12:26.289Z,8.90
2023-05-01T04:13:26.267Z,8.60
2023-05-01T04:14:26.280Z,9.60
2023-05-01T04:15:26.232Z,10.10
2023-05-01T04:16:26.243Z,9.40
2023-05-01T04:17:26.204Z,10.50
2023-05-01T04:18:26.214Z,9.80
2023-05-01T04:19:26.191Z,11.10
2023-05-01T04:20:26.188Z,12.90
2023-05-01T04:21:26.154Z,12.50
2023-05-01T04:22:26.151Z,11.00
2023-05-01T04:23:26.147Z,9.20
2023-05-01T04:24:26.134Z,8.90
2023-05-01T04:25:26.099Z,12.30
2023-05-01T04:26:26.091Z,10.70
2023-05-01T04:27:26.077Z,9.70
2023-05-01T04:28:26.084Z,9.20
2023-05-01T04:29:26.096Z,11.10
2023-05-01T04:30:26.039Z,10.50
2023-05-01T04:31:26.096Z,11.40
2023-05-01T04:32:26.055Z,10.00
2023-05-01T04:33:26.004Z,10.70
2023-05-01T04:34:26.016Z,12.90
2023-05-01T04:35:26.015Z,17.70
2023-05-01T04:36:25.960Z,12.10
2023-05-01T04:37:25.962Z,12.30
2023-05-01T04:38:25.947Z,13.30
2023-05-01T04:39:25.952Z,10.10
2023-05-01T04:40:25.926Z,10.40
2023-05-01T04:41:25.904Z,9.70
2023-05-01T04:42:25.898Z,9.40
2023-05-01T04:43:25.859Z,10.40
2023-05-01T04:44:25.880Z,11.40
2023-05-01T04:45:25.839Z,12.10
2023-05-01T04:46:25.877Z,12.30
2023-05-01T04:47:25.836Z,11.20
2023-05-01T04:48:25.847Z,13.60
2023-05-01T04:49:25.807Z,11.60
2023-05-01T04:50:25.786Z,13.30
2023-05-01T04:51:25.760Z,10.40
2023-05-01T04:52:25.771Z,12.10
2023-05-01T04:53:25.741Z,11.40
2023-05-01T04:54:25.743Z,12.70
2023-05-01T04:55:25.708Z,13.10
2023-05-01T04:56:25.731Z,11.70
2023-05-01T04:57:25.704Z,10.40
2023-05-01T04:58:25.667Z,10.50
2023-05-01T04:59:25.692Z,10.80
2023-05-01T05:00:25.727Z,11.10
2023-05-01T05:01:25.667Z,13.30
2023-05-01T05:02:25.718Z,12.00
2023-05-01T05:03:25.669Z,15.50
2023-05-01T05:04:25.618Z,12.80
2023-05-01T05:05:25.605Z,13.50
2023-05-01T05:06:25.637Z,12.90
2023-05-01T05:07:25.565Z,14.20
2023-05-01T05:08:25.546Z,12.60
2023-05-01T05:09:25.556Z,14.60
2023-05-01T05:10:25.530Z,11.50
2023-05-01T05:11:25.500Z,10.90
2023-05-01T05:12:25.499Z,13.70
2023-05-01T05:13:25.479Z,13.10
2023-05-01T05:14:25.510Z,14.00
2023-05-01T05:15:25.471Z,14.30
2023-05-01T05:16:25.545Z,14.40
2023-05-01T05:17:25.437Z,12.40
2023-05-01T05:18:25.466Z,13.50
2023-05-01T05:19:25.421Z,15.60
2023-05-01T05:20:25.405Z,14.20
2023-05-01T05:21:25.389Z,12.80
2023-05-01T05:22:25.384Z,13.30
2023-05-01T05:23:25.367Z,16.10
2023-05-01T05:24:25.364Z,14.20
2023-05-01T05:25:25.431Z,18.70
2023-05-01T05:26:25.309Z,16.60
2023-05-01T05:27:25.344Z,15.10
2023-05-01T05:28:25.285Z,16.80
2023-05-01T05:29:25.297Z,14.80
2023-05-01T05:30:25.272Z,20.80
2023-05-01T05:31:25.277Z,20.30
2023-05-01T05:32:25.401Z,22.10
2023-05-01T05:33:25.286Z,18.50
2023-05-01T05:34:25.236Z,18.60
2023-05-01T05:35:25.191Z,18.40
2023-05-01T05:36:25.195Z,17.80
2023-05-01T05:37:25.162Z,21.60
2023-05-01T05:38:25.174Z,19.50
2023-05-01T05:39:25.190Z,21.20
2023-05-01T05:40:25.148Z,22.30
2023-05-01T05:41:25.134Z,23.90
2023-05-01T05:42:25.137Z,26.10
2023-05-01T05:43:27.848Z,27.20
2023-05-01T05:44:25.091Z,28.70
2023-05-01T05:45:25.067Z,28.90
2023-05-01T05:46:25.110Z,29.30
2023-05-01T05:47:25.050Z,28.40
2023-05-01T05:48:25.083Z,28.60
2023-05-01T05:49:25.159Z,31.40
2023-05-01T05:50:25.015Z,31.20
2023-05-01T05:51:24.979Z,28.70
2023-05-01T05:52:24.998Z,33.30
2023-05-01T05:53:26.150Z,29.60
2023-05-01T05:54:24.963Z,29.50
2023-05-01T05:55:24.930Z,32.00
2023-05-01T05:56:24.936Z,31.80
2023-05-01T05:57:24.918Z,30.70
2023-05-01T05:58:24.915Z,32.40
2023-05-01T05:59:24.904Z,29.50
2023-05-01T06:00:24.873Z,31.30
2023-05-01T06:01:25.026Z,31.20
2023-05-01T06:02:24.884Z,32.70
2023-05-01T06:03:25.149Z,31.70
2023-05-01T06:04:24.835Z,31.80
2023-05-01T06:05:24.832Z,34.00
2023-05-01T06:06:24.826Z,32.30
2023-05-01T06:07:24.804Z,31.80
2023-05-01T06:08:24.831Z,33.00
2023-05-01T06:09:24.780Z,33.20
2023-05-01T06:10:24.748Z,33.00
2023-05-01T06:11:24.732Z,35.30
2023-05-01T06:12:24.718Z,35.90
2023-05-01T06:13:24.710Z,32.90
2023-05-01T06:14:24.706Z,35.90
2023-05-01T06:15:24.838Z,35.70
2023-05-01T06:16:24.719Z,35.80
2023-05-01T06:17:24.649Z,36.50
2023-05-01T06:18:24.633Z,36.60
2023-05-01T06:19:24.657Z,34.30
2023-05-01T06:20:24.609Z,34.90
2023-05-01T06:21:24.615Z,33.60
2023-05-01T06:22:24.594Z,37.80
2023-05-01T06:23:24.606Z,35.60
2023-05-01T06:24:24.580Z,35.90
2023-05-01T06:25:24.551Z,33.90
2023-05-01T06:26:24.555Z,35.00
2023-05-01T06:27:24.529Z,35.40
2023-05-01T06:28:24.500Z,35.40
2023-05-01T06:29:24.510Z,35.70
2023-05-01T06:30:24.498Z,36.60
2023-05-01T06:31:24.500Z,36.20
2023-05-01T06:32:24.482Z,37.20
2023-05-01T06:33:24.440Z,35.60
2023-05-01T06:34:24.448Z,35.00
2023-05-01T06:35:24.428Z,37.90
2023-05-01T06:36:24.398Z,39.90
2023-05-01T06:37:24.379Z,40.90
2023-05-01T06:38:26.303Z,40.00
2023-05-01T06:39:24.399Z,40.60
2023-05-01T06:40:24.553Z,42.50
2023-05-01T06:41:24.326Z,43.70
2023-05-01T06:42:24.323Z,44.50
2023-05-01T06:43:24.306Z,45.40
2023-05-01T06:44:24.305Z,42.40
2023-05-01T06:45:24.316Z,42.70
2023-05-01T06:46:24.328Z,42.80
2023-05-01T06:47:24.378Z,46.60
2023-05-01T06:48:24.239Z,45.90
2023-05-01T06:49:24.267Z,43.10
2023-05-01T06:50:24.232Z,42.50
2023-05-01T06:51:24.215Z,44.70
2023-05-01T06:52:24.187Z,43.00
2023-05-01T06:53:24.202Z,43.90
2023-05-01T06:54:24.213Z,44.50
2023-05-01T06:55:24.160Z,43.30
2023-05-01T06:56:24.137Z,46.10
2023-05-01T06:57:24.129Z,44.80
2023-05-01T06:58:24.700Z,45.20
2023-05-01T06:59:24.109Z,43.70
2023-05-01T07:00:24.091Z,44.90
2023-05-01T07:01:24.129Z,46.20
2023-05-01T07:02:24.112Z,49.00
2023-05-01T07:03:24.078Z,45.30
2023-05-01T07:04:24.102Z,47.40
2023-05-01T07:05:24.029Z,48.60
2023-05-01T07:06:24.051Z,45.10
2023-05-01T07:07:24.006Z,50.20
2023-05-01T07:08:23.989Z,47.50
2023-05-01T07:09:23.986Z,46.70
2023-05-01T07:10:23.960Z,46.10
2023-05-01T07:11:26.485Z,47.30
2023-05-01T07:12:23.929Z,48.30
2023-05-01T07:13:23.941Z,46.50
2023-05-01T07:14:23.938Z,45.00
2023-05-01T07:15:23.888Z,44.60
2023-05-01T07:16:23.917Z,44.20
2023-05-01T07:17:23.897Z,45.50
2023-05-01T07:18:23.876Z,45.20
2023-05-01T07:19:23.857Z,42.20
2023-05-01T07:20:23.822Z,42.10
2023-05-01T07:21:23.837Z,43.00
2023-05-01T07:22:23.809Z,48.20
2023-05-01T07:23:23.782Z,42.80
2023-05-01T07:24:23.826Z,43.90
2023-05-01T07:25:23.765Z,44.50
2023-05-01T07:26:23.766Z,45.10
2023-05-01T07:27:23.750Z,48.20
2023-05-01T07:28:23.711Z,45.40
2023-05-01T07:29:23.752Z,43.80
2023-05-01T07:30:23.690Z,43.50
2023-05-01T07:31:23.725Z,44.40
2023-05-01T07:32:23.666Z,43.50
2023-05-01T07:33:23.749Z,43.20
2023-05-01T07:34:23.661Z,42.30
2023-05-01T07:35:23.637Z,41.10
2023-05-01T07:36:23.650Z,38.50
2023-05-01T07:37:23.614Z,38.60
2023-05-01T07:38:23.595Z,38.30
2023-05-01T07:39:23.583Z,37.70
2023-05-01T07:40:23.563Z,39.60
2023-05-01T07:41:23.578Z,39.70
2023-05-01T07:42:23.542Z,40.00
2023-05-01T07:43:23.536Z,39.70
2023-05-01T07:44:23.523Z,41.00
2023-05-01T07:45:23.495Z,40.80
2023-05-01T07:46:23.548Z,41.00
2023-05-01T07:47:23.516Z,39.90
2023-05-01T07:48:23.474Z,39.90
2023-05-01T07:49:23.475Z,40.60
2023-05-01T07:50:23.448Z,40.50
2023-05-01T07:51:23.415Z,39.20
2023-05-01T07:52:23.417Z,37.80
2023-05-01T07:53:23.419Z,40.30
2023-05-01T07:54:23.388Z,40.50
2023-05-01T07:55:23.372Z,39.10
2023-05-01T07:56:23.360Z,38.90
2023-05-01T07:57:23.360Z,40.60
2023-05-01T07:58:23.330Z,41.30
2023-05-01T07:59:23.386Z,39.30
2023-05-01T08:00:23.304Z,40.50
2023-05-01T08:01:23.298Z,41.60
2023-05-01T08:02:23.322Z,39.80
2023-05-01T08:03:23.511Z,41.90
2023-05-01T08:04:23.490Z,41.00
2023-05-01T08:05:23.255Z,40.90
2023-05-01T08:06:23.287Z,39.40
2023-05-01T08:07:23.213Z,38.10
2023-05-01T08:08:23.214Z,37.20
2023-05-01T08:09:23.234Z,39.50
2023-05-01T08:10:23.219Z,38.00
2023-05-01T08:11:23.193Z,35.00
2023-05-01T08:12:23.149Z,35.50
2023-05-01T08:13:23.174Z,38.60
2023-05-01T08:14:23.140Z,38.00
2023-05-01T08:15:23.116Z,40.40
2023-05-01T08:16:23.128Z,37.10
2023-05-01T08:17:23.114Z,35.50
2023-05-01T08:18:23.091Z,31.50
2023-05-01T08:19:23.082Z,30.60
2023-05-01T08:20:23.092Z,31.40
2023-05-01T08:21:23.064Z,35.00
2023-05-01T08:22:23.042Z,30.60
2023-05-01T08:23:23.029Z,31.80
2023-05-01T08:24:23.283Z,29.80
2023-05-01T08:25:23.004Z,28.90
2023-05-01T08:26:23.023Z,27.00
2023-05-01T08:27:23.000Z,26.20
2023-05-01T08:28:22.961Z,30.90
2023-05-01T08:29:22.981Z,28.50
2023-05-01T08:30:22.981Z,27.00
2023-05-01T08:31:22.925Z,30.40
2023-05-01T08:32:22.959Z,32.20
2023-05-01T08:33:22.892Z,33.90
2023-05-01T08:34:22.885Z,31.20
2023-05-01T08:35:22.880Z,30.60
2023-05-01T08:36:22.838Z,29.60
2023-05-01T08:37:22.855Z,31.10
2023-05-01T08:38:22.822Z,29.20
2023-05-01T08:39:22.827Z,28.70
2023-05-01T08:40:22.831Z,31.30
2023-05-01T08:41:22.799Z,29.50
2023-05-01T08:42:22.771Z,28.90
2023-05-01T08:43:22.758Z,29.20
2023-05-01T08:44:22.779Z,28.40
2023-05-01T08:45:22.756Z,29.30
2023-05-01T08:46:22.731Z,28.90
2023-05-01T08:47:22.728Z,30.40
2023-05-01T08:48:22.719Z,30.50
2023-05-01T08:49:22.699Z,28.60
2023-05-01T08:50:22.978Z,32.90
2023-05-01T08:51:22.655Z,31.80
2023-05-01T08:52:22.673Z,32.40
2023-05-01T08:53:22.632Z,31.20
2023-05-01T08:54:22.656Z,37.50
2023-05-01T08:55:22.616Z,32.70
2023-05-01T08:56:22.581Z,32.70
2023-05-01T08:57:22.587Z,35.20
2023-05-01T08:58:22.576Z,32.60
2023-05-01T08:59:22.566Z,33.90
2023-05-01T09:00:22.620Z,31.10
2023-05-01T09:01:22.547Z,32.30
2023-05-01T09:02:22.566Z,32.50
2023-05-01T09:03:22.582Z,34.90
2023-05-01T09:04:22.548Z,31.50
2023-05-01T09:05:22.496Z,31.50
2023-05-01T09:06:22.494Z,33.10
2023-05-01T09:07:22.482Z,31.60
2023-05-01T09:08:22.444Z,29.70
2023-05-01T09:09:22.433Z,34.30
2023-05-01T09:10:22.402Z,30.30
2023-05-01T09:11:22.415Z,29.50
2023-05-01T09:12:22.383Z,28.20
2023-05-01T09:13:22.383Z,30.30
2023-05-01T09:14:22.367Z,29.10
2023-05-01T09:15:22.386Z,29.20
2023-05-01T09:16:22.353Z,28.00
2023-05-01T09:17:22.424Z,28.10
2023-05-01T09:18:22.359Z,28.10
2023-05-01T09:19:22.302Z,29.70
2023-05-01T09:20:22.301Z,28.20
2023-05-01T09:21:22.308Z,29.10
2023-05-01T09:22:22.237Z,29.10
2023-05-01T09:23:22.239Z,33.70
2023-05-01T09:24:22.268Z,30.70
2023-05-01T09:25:22.233Z,27.70
2023-05-01T09:26:22.200Z,28.70
2023-05-01T09:27:22.197Z,27.70
2023-05-01T09:28:22.174Z,26.30
2023-05-01T09:29:22.173Z,23.80
2023-05-01T09:30:22.141Z,23.50
2023-05-01T09:31:22.165Z,23.50
2023-05-01T09:32:22.231Z,19.70
2023-05-01T09:33:22.153Z,17.10
2023-05-01T09:34:22.102Z,18.70
2023-05-01T09:35:22.081Z,20.70
2023-05-01T09:36:22.076Z,21.40
2023-05-01T09:37:22.091Z,20.60
2023-05-01T09:38:22.096Z,20.50
2023-05-01T09:39:22.050Z,20.90
2023-05-01T09:40:22.036Z,19.40
2023-05-01T09:41:22.025Z,20.20
2023-05-01T09:42:21.994Z,20.70
2023-05-01T09:43:22.002Z,17.90
2023-05-01T09:44:21.972Z,19.80
2023-05-01T09:45:21.960Z,22.40
2023-05-01T09:46:21.969Z,19.20
2023-05-01T09:47:21.975Z,18.50
2023-05-01T09:48:21.906Z,18.50
2023-05-01T09:49:21.909Z,18.60
2023-05-01T09:50:21.889Z,19.60
2023-05-01T09:51:21.906Z,18.70
2023-05-01T09:52:21.859Z,17.30
2023-05-01T09:53:21.862Z,16.60
2023-05-01T09:54:21.843Z,16.60
2023-05-01T09:55:23.086Z,16.10
2023-05-01T09:56:21.830Z,16.20
2023-05-01T09:57:21.799Z,17.80
2023-05-01T09:58:21.785Z,16.00
2023-05-01T09:59:21.802Z,15.20
2023-05-01T10:00:21.775Z,18.30
2023-05-01T10:01:21.794Z,18.10
2023-05-01T10:02:21.816Z,16.40
2023-05-01T10:03:21.803Z,16.50
2023-05-01T10:04:21.749Z,16.80
2023-05-01T10:05:21.721Z,16.80
2023-05-01T10:06:21.767Z,16.70
2023-05-01T10:07:21.675Z,18.70
2023-05-01T10:08:21.651Z,15.20
2023-05-01T10:09:21.675Z,16.90
2023-05-01T10:10:21.653Z,14.20
2023-05-01T10:11:21.632Z,15.60
2023-05-01T10:12:21.616Z,15.60
2023-05-01T10:13:21.593Z,14.00
2023-05-01T10:14:21.597Z,14.60
2023-05-01T10:15:25.972Z,15.70
2023-05-01T10:16:22.618Z,16.00
2023-05-01T10:17:21.621Z,14.50
2023-05-01T10:18:21.703Z,15.90
2023-05-01T10:19:21.542Z,14.30
2023-05-01T10:20:21.522Z,15.30
2023-05-01T10:21:21.485Z,17.80
2023-05-01T10:22:21.499Z,15.10
2023-05-01T10:23:21.455Z,16.80
2023-05-01T10:24:21.504Z,15.00
2023-05-01T10:25:21.433Z,14.50
2023-05-01T10:26:21.429Z,14.10
2023-05-01T10:27:21.418Z,14.90
2023-05-01T10:28:21.397Z,13.60
2023-05-01T10:29:21.388Z,14.80
2023-05-01T10:30:21.393Z,12.80
2023-05-01T10:31:21.405Z,16.20
2023-05-01T10:32:21.352Z,13.60
2023-05-01T10:33:21.439Z,14.20
2023-05-01T10:34:21.348Z,13.50
2023-05-01T10:35:21.301Z,21.50
2023-05-01T10:36:21.292Z,14.00
2023-05-01T10:37:21.322Z,14.70
2023-05-01T10:38:21.279Z,14.70
2023-05-01T10:39:21.301Z,13.00
2023-05-01T10:40:21.249Z,13.20
2023-05-01T10:41:21.220Z,13.90
2023-05-01T10:42:21.207Z,11.30
2023-05-01T10:43:21.224Z,13.00
2023-05-01T10:44:21.209Z,12.30
2023-05-01T10:45:21.174Z,13.40
2023-05-01T10:46:21.319Z,13.60
2023-05-01T10:47:21.174Z,12.40
2023-05-01T10:48:21.140Z,11.80
2023-05-01T10:49:21.157Z,11.30
2023-05-01T10:50:21.105Z,13.90
2023-05-01T10:51:21.108Z,16.60
2023-05-01T10:52:21.101Z,11.50
2023-05-01T10:53:21.070Z,13.70
2023-05-01T10:54:21.082Z,11.90
2023-05-01T10:55:21.038Z,12.60
2023-05-01T10:56:21.019Z,13.40
2023-05-01T10:57:21.030Z,12.80
2023-05-01T10:58:21.006Z,10.80
2023-05-01T10:59:21.016Z,11.80
2023-05-01T11:00:20.981Z,11.70
2023-05-01T11:01:21.027Z,12.90
2023-05-01T11:02:20.988Z,13.80
2023-05-01T11:03:20.974Z,12.00
2023-05-01T11:04:20.941Z,13.50
2023-05-01T11:05:32.187Z,11.60
2023-05-01T11:06:22.002Z,12.70
2023-05-01T11:07:20.974Z,10.40
2023-05-01T11:08:20.901Z,11.70
2023-05-01T11:09:21.146Z,10.60
2023-05-01T11:10:20.854Z,11.50
2023-05-01T11:11:20.832Z,10.30
2023-05-01T11:12:20.826Z,13.00
2023-05-01T11:13:20.809Z,9.10
2023-05-01T11:14:20.838Z,9.90
2023-05-01T11:15:20.781Z,10.70
2023-05-01T11:16:20.905Z,10.50
2023-05-01T11:17:20.758Z,9.90
2023-05-01T11:18:20.759Z,11.40
2023-05-01T11:19:20.748Z,11.10
2023-05-01T11:20:20.719Z,11.30
2023-05-01T11:21:20.722Z,9.80
2023-05-01T11:22:20.733Z,9.10
2023-05-01T11:23:20.715Z,9.60
2023-05-01T11:24:20.712Z,9.60
2023-05-01T11:25:20.688Z,13.00
2023-05-01T11:26:20.652Z,9.20
2023-05-01T11:27:20.619Z,9.50
2023-05-01T11:28:20.644Z,10.50
2023-05-01T11:29:20.614Z,11.20
2023-05-01T11:30:20.599Z,9.40
2023-05-01T11:31:20.630Z,8.20
2023-05-01T11:32:20.770Z,11.00
2023-05-01T11:33:20.595Z,8.90
2023-05-01T11:34:20.573Z,9.70
2023-05-01T11:35:20.542Z,9.60
2023-05-01T11:36:20.509Z,9.80
2023-05-01T11:37:20.504Z,10.30
2023-05-01T11:38:20.496Z,9.40
2023-05-01T11:39:20.546Z,11.40
2023-05-01T11:40:20.473Z,10.10
2023-05-01T11:41:20.750Z,11.30
2023-05-01T11:42:20.528Z,9.90
2023-05-01T11:43:20.443Z,9.60
2023-05-01T11:44:20.456Z,11.30
2023-05-01T11:45:20.436Z,10.90
2023-05-01T11:46:20.438Z,10.50
2023-05-01T11:47:20.402Z,10.10
2023-05-01T11:48:20.522Z,8.90
2023-05-01T11:49:20.348Z,8.90
2023-05-01T11:50:20.350Z,9.80
2023-05-01T11:51:20.327Z,9.10
2023-05-01T11:52:20.305Z,10.40
2023-05-01T11:53:20.299Z,11.10
2023-05-01T11:54:20.310Z,7.70
2023-05-01T11:55:20.321Z,10.60
2023-05-01T11:56:26.512Z,9.90
2023-05-01T11:57:21.253Z,7.80
2023-05-01T11:58:20.252Z,10.80
2023-05-01T11:59:20.248Z,9.40
2023-05-01T12:00:20.220Z,9.80
2023-05-01T12:01:20.205Z,8.00
2023-05-01T12:02:20.294Z,9.40
2023-05-01T12:03:20.332Z,11.20
2023-05-01T12:04:20.264Z,10.30
2023-05-01T12:05:20.149Z,9.50
2023-05-01T12:06:20.166Z,9.20
2023-05-01T12:07:20.133Z,9.90
2023-05-01T12:08:20.102Z,11.20
2023-05-01T12:09:20.122Z,9.10
2023-05-01T12:10:20.093Z,10.10
2023-05-01T12:11:20.069Z,10.20
2023-05-01T12:12:20.059Z,8.90
2023-05-01T12:13:20.038Z,9.40
2023-05-01T12:14:20.038Z,10.10
2023-05-01T12:15:20.011Z,10.80
2023-05-01T12:16:20.050Z,10.70
2023-05-01T12:17:20.097Z,12.30
2023-05-01T12:18:20.005Z,9.70
2023-05-01T12:19:21.720Z,9.00
2023-05-01T12:20:19.947Z,10.30
2023-05-01T12:21:19.954Z,9.60
2023-05-01T12:22:19.925Z,8.90
2023-05-01T12:23:19.921Z,9.50
2023-05-01T12:24:19.907Z,9.40
2023-05-01T12:25:19.872Z,10.10
2023-05-01T12:26:19.885Z,9.60
2023-05-01T12:27:19.875Z,11.30
2023-05-01T12:28:20.097Z,9.30
2023-05-01T12:29:19.842Z,8.80
2023-05-01T12:30:19.859Z,9.00
2023-05-01T12:31:19.832Z,9.50
2023-05-01T12:32:19.819Z,10.00
2023-05-01T12:33:19.902Z,9.70
2023-05-01T12:34:19.781Z,10.40
2023-05-01T12:35:19.769Z,8.70
2023-05-01T12:36:19.733Z,9.10
2023-05-01T12:37:19.723Z,9.40
2023-05-01T12:38:19.730Z,10.00
2023-05-01T12:39:19.727Z,11.50
2023-05-01T12:40:19.718Z,10.80
2023-05-01T12:41:19.664Z,10.40
2023-05-01T12:42:19.666Z,8.50
2023-05-01T12:43:19.682Z,8.50
2023-05-01T12:44:19.641Z,8.90
2023-05-01T12:45:19.622Z,8.80
2023-05-01T12:46:19.663Z,8.50
2023-05-01T12:47:19.592Z,7.80
2023-05-01T12:48:19.708Z,8.70
2023-05-01T12:49:19.570Z,8.40
2023-05-01T12:50:19.564Z,9.70
2023-05-01T12:51:19.539Z,9.30
2023-05-01T12:52:19.535Z,9.60
2023-05-01T12:53:19.516Z,9.90
2023-05-01T12:54:19.503Z,9.10
2023-05-01T12:55:19.483Z,8.40
2023-05-01T12:56:19.505Z,7.70